Nashville, TN (37229)

4:00 PM CST on December 06, 2016 (GMT -0600)
APRSWXNET | | Change Station

Elev 551 ft 36.14 °N, 86.80 °W | Updated 21 minutes ago

Overcast
Overcast
46 °F
Feels Like 41 °F
N
9
Wind Variable Wind from SSW
Gusts 18.0 mph

Today
High -- | Low -- °F
--% Chance of Precip.
Yesterday
High -- | Low -- °F
Precip. -- in
Pressure 29.92 in
Visibility 10.0 miles
Clouds Overcast 1100 ft
Windchill 41 °F
Dew Point 42 °F
Humidity 87%
Rainfall in
Snow Depth Not available.
6:44 AM 4:32 PM
Waxing Crescent, 45% visible
METAR KBNA 062153Z 32010KT 10SM OVC011 08/06 A2992 RMK AO2 SLP132 T00830056
Pressure 29.92 in
Visibility 10.0 miles
Clouds Overcast 1100 ft
Windchill 41 °F
Dew Point 42 °F
Humidity 87%
Rainfall in
Snow Depth Not available.
6:44 AM 4:32 PM
Waxing Crescent, 45% visible
METAR KBNA 062153Z 32010KT 10SM OVC011 08/06 A2992 RMK AO2 SLP132 T00830056

10-Day Weather Forecast

Almanac

Astronomy

Dec. 06, 2016 Rise Set
Actual Time
Civil Twilight
Nautical Twilight
Astronomical Twilight
Moon
Length of Visible Light
Length of Day
Tomorrow will be .
, % of the Moon is Illuminated

Today's Extremes

State Highs State Lows

Community

WunderPhotos

Upload Photos

1,956,033 photos uploaded!

WunderBlog® & News

Nearby

Air Quality

  Air Quality AQ Index Pollutant
Not available.

Snow Depth

Station Depth Elevation

Earthquake Activity

City Distance Mag. Time & Date
Minimum magnitude displayed is 2.5.

Coastal Water Temperatures

Place Temperature

Stations

Nearby Weather Stations

Station Location Temp. Windchill Dew Point Humidity Wind Precip. Elev Updated Type
                   

Watches & Warnings

There are currently no watches in effect.